Impacts TAF Board INFO
FOR SITUATIONAL AWARENESS. NOT TO BE USED FOR FLIGHT PLANNING PURPOSES.
IDs:

KSAN - San Diego Intl Arpt, CA, US

Issued at 2056 UTC 16 Jan 2018
Updated at 2112 UTC 16 Jan 2018
Potential Impact None Slight Moderate High
Time<<17/10Z 17/11Z 17/12Z 17/13Z 17/14Z 17/15Z 17/16Z 17/17Z 17/18Z 17/19Z 17/20Z 17/21Z 17/22Z>>
Type PRVL PRVL PRVL PRVL PRVL PRVL PRVL PRVL PRVL PRVL PRVL PRVL PRVL
VIS >6 >6 >6 >6 >6 >6 >6 >6 >6 >6 >6 >6 >6
CIG -- -- -- -- -- -- -- -- -- -- -- -- --
Cover SCT SCT SCT SCT SCT SCT SCT SCT SCT SCT SCT SCT SCT
FltCat VFR VFR VFR VFR VFR VFR VFR VFR VFR VFR VFR VFR VFR
WX -- -- -- -- -- -- -- -- -- -- -- -- --
WDir 300 300 300 300 300 300 300 300 300 300 300 300 300
WSpd 6 6 6 6 6 6 6 6 6 6 6 6 6
WGst -- -- -- -- -- -- -- -- -- -- -- -- --

Raw TAF
KSAN 162056Z 1621/1724 31009KT P6SM FEW003 BKN200
  FM170000 VRB04KT P6SM FEW003 BKN200
  FM170600 VRB03KT 6SM BR BKN007
  FM171000 30006KT P6SM SCT008 SCT200


METAR Board
Radar Display
Forecast Discussion

FOR SITUATIONAL AWARENESS. NOT TO BE USED FOR FLIGHT PLANNING PURPOSES.